Time;durP1;ratioP1;P1;durP2;ratioP2;P2;SDS_P1;SDS_P2;PMS_P1;PMS_P2;Temp;Humidity;BMP_temperature;BMP_pressure;BME280_temperature;BME280_humidity;BME280_pressure;Samples;Min_cycle;Max_cycle;Signal;HPM_P1;HPM_P2
2023/07/20 00:01:45;;;;;;;3.88;2.65;;;;;;;;;;6216720;23;20018;-57
2023/07/20 00:04:11;;;;;;;4.05;2.60;;;;;;;;;;6216722;23;20020;-57
2023/07/20 00:06:40;;;;;;;5.40;2.83;;;;;;;;;;6216655;23;20019;-56
2023/07/20 00:09:06;;;;;;;5.13;3.10;;;;;;;;;;6216730;23;20013;-57
2023/07/20 00:11:36;;;;;;;3.42;2.60;;;;;;;;;;6216300;23;20013;-57
2023/07/20 00:14:02;;;;;;;5.38;3.20;;;;;;;;;;6216739;23;20055;-57
2023/07/20 00:16:28;;;;;;;3.88;3.28;;;;;;;;;;6216604;23;20043;-57
2023/07/20 00:18:54;;;;;;;6.30;3.30;;;;;;;;;;6216604;23;20055;-57
2023/07/20 00:21:20;;;;;;;4.53;3.47;;;;;;;;;;6216455;23;20059;-57
2023/07/20 00:23:46;;;;;;;5.65;3.65;;;;;;;;;;6215093;23;20028;-57
2023/07/20 00:26:12;;;;;;;4.75;3.03;;;;;;;;;;6214782;23;20442;-57
2023/07/20 00:28:38;;;;;;;4.82;3.40;;;;;;;;;;6216455;23;20104;-56
2023/07/20 00:31:04;;;;;;;4.13;3.40;;;;;;;;;;6216616;23;20434;-57
2023/07/20 00:33:30;;;;;;;4.93;3.90;;;;;;;;;;6216127;23;20031;-56
2023/07/20 00:35:57;;;;;;;4.10;3.10;;;;;;;;;;6216439;23;20056;-56
2023/07/20 00:38:23;;;;;;;4.35;3.47;;;;;;;;;;6214573;23;20430;-56
2023/07/20 00:40:52;;;;;;;4.38;3.70;;;;;;;;;;6216329;23;20044;-57
2023/07/20 00:43:18;;;;;;;5.25;4.43;;;;;;;;;;6214973;23;20017;-56
2023/07/20 00:45:44;;;;;;;5.13;4.10;;;;;;;;;;6216850;23;20063;-57
2023/07/20 00:48:12;;;;;;;5.22;3.85;;;;;;;;;;6214420;23;20020;-57
2023/07/20 00:50:38;;;;;;;9.38;4.40;;;;;;;;;;6217026;23;20020;-57
2023/07/20 00:53:07;;;;;;;5.53;4.05;;;;;;;;;;6216694;23;20027;-56
2023/07/20 00:55:34;;;;;;;6.50;4.20;;;;;;;;;;6215600;23;20430;-57
2023/07/20 00:58:00;;;;;;;5.35;4.30;;;;;;;;;;6216315;23;20017;-57
2023/07/20 01:00:27;;;;;;;5.75;4.38;;;;;;;;;;6215449;23;20013;-57
2023/07/20 01:02:53;;;;;;;7.20;5.50;;;;;;;;;;6216751;23;20012;-57
2023/07/20 01:05:20;;;;;;;6.03;4.22;;;;;;;;;;6216319;23;20013;-57
2023/07/20 01:07:55;;;;;;;5.60;4.32;;;;;;;;;;6214389;23;20012;-57
2023/07/20 01:10:29;;;;;;;5.82;4.25;;;;;;;;;;6216335;23;20015;-57
2023/07/20 01:12:56;;;;;;;6.15;4.30;;;;;;;;;;6216370;23;20016;-57
2023/07/20 01:15:22;;;;;;;6.40;4.55;;;;;;;;;;6214439;23;20012;-57
2023/07/20 01:17:48;;;;;;;6.20;4.13;;;;;;;;;;6215853;23;20483;-57
2023/07/20 01:20:15;;;;;;;6.25;4.75;;;;;;;;;;6216218;23;20064;-57
2023/07/20 01:22:42;;;;;;;4.20;3.72;;;;;;;;;;6216625;23;20147;-57
2023/07/20 01:25:08;;;;;;;5.38;4.10;;;;;;;;;;6216221;23;20482;-57
2023/07/20 01:27:37;;;;;;;7.63;5.00;;;;;;;;;;6216240;23;20013;-57
2023/07/20 01:30:22;;;;;;;4.20;3.45;;;;;;;;;;6216177;23;20347;-57
2023/07/20 01:32:48;;;;;;;5.20;3.60;;;;;;;;;;6216233;23;20437;-56
2023/07/20 01:35:15;;;;;;;6.40;3.95;;;;;;;;;;6190321;23;20108;-57
2023/07/20 01:37:41;;;;;;;5.25;3.67;;;;;;;;;;6215667;23;20009;-57
2023/07/20 01:40:08;;;;;;;4.95;4.00;;;;;;;;;;6216052;23;20016;-57
2023/07/20 01:42:34;;;;;;;4.70;3.60;;;;;;;;;;6215809;23;20457;-57
2023/07/20 01:45:00;;;;;;;5.78;3.70;;;;;;;;;;6216162;23;20024;-57
2023/07/20 01:47:26;;;;;;;8.82;4.45;;;;;;;;;;6216379;23;20448;-56
2023/07/20 01:49:52;;;;;;;6.22;4.05;;;;;;;;;;6216148;23;20023;-56
2023/07/20 01:52:18;;;;;;;5.95;4.30;;;;;;;;;;6215609;23;20016;-57
2023/07/20 01:54:44;;;;;;;6.45;4.45;;;;;;;;;;6216103;23;20017;-56
2023/07/20 01:57:10;;;;;;;7.47;4.90;;;;;;;;;;6216123;23;20015;-56
2023/07/20 01:59:36;;;;;;;7.32;4.68;;;;;;;;;;6215982;23;20504;-57
2023/07/20 02:02:03;;;;;;;5.60;4.53;;;;;;;;;;6215726;23;20430;-57
2023/07/20 02:04:29;;;;;;;5.53;4.65;;;;;;;;;;6214553;23;20067;-56
2023/07/20 02:06:55;;;;;;;8.40;4.78;;;;;;;;;;6215710;23;20009;-56
2023/07/20 02:09:21;;;;;;;8.82;5.28;;;;;;;;;;6217341;23;20019;-57
2023/07/20 02:11:47;;;;;;;5.93;4.60;;;;;;;;;;6216225;23;20070;-56
2023/07/20 02:14:13;;;;;;;7.57;5.20;;;;;;;;;;6218121;23;20008;-56
2023/07/20 02:16:39;;;;;;;6.13;4.68;;;;;;;;;;6217291;23;20380;-56
2023/07/20 02:19:06;;;;;;;7.25;5.60;;;;;;;;;;6215828;23;20453;-56
2023/07/20 02:21:33;;;;;;;5.60;4.40;;;;;;;;;;6217651;23;20016;-56
2023/07/20 02:23:59;;;;;;;5.32;4.10;;;;;;;;;;6218328;23;20287;-56
2023/07/20 02:26:25;;;;;;;5.38;4.18;;;;;;;;;;6216431;23;20084;-56
2023/07/20 02:28:52;;;;;;;5.05;4.03;;;;;;;;;;6217617;23;20008;-56
2023/07/20 02:31:18;;;;;;;6.65;4.10;;;;;;;;;;6217610;23;20059;-57
2023/07/20 02:33:44;;;;;;;7.18;4.95;;;;;;;;;;6218189;23;20016;-56
2023/07/20 02:36:10;;;;;;;5.30;4.28;;;;;;;;;;6217509;23;20012;-56
2023/07/20 02:38:36;;;;;;;7.47;4.20;;;;;;;;;;6217446;23;20324;-56
2023/07/20 02:41:02;;;;;;;7.72;4.65;;;;;;;;;;6217340;23;20012;-57
2023/07/20 02:43:28;;;;;;;7.30;4.80;;;;;;;;;;6215647;23;20453;-57
2023/07/20 02:45:54;;;;;;;5.97;4.63;;;;;;;;;;6217792;23;20009;-57
2023/07/20 02:48:20;;;;;;;5.78;4.85;;;;;;;;;;6215470;23;20448;-58
2023/07/20 02:50:47;;;;;;;7.13;4.90;;;;;;;;;;6217340;23;20012;-57
2023/07/20 02:53:13;;;;;;;7.60;4.80;;;;;;;;;;6216963;23;20015;-56
2023/07/20 02:55:39;;;;;;;6.65;3.97;;;;;;;;;;6217325;23;20024;-57
2023/07/20 02:58:05;;;;;;;5.30;3.97;;;;;;;;;;6217312;23;20425;-57
2023/07/20 03:00:31;;;;;;;4.95;3.90;;;;;;;;;;6217163;23;20008;-56
2023/07/20 03:02:57;;;;;;;6.32;4.30;;;;;;;;;;6214668;23;20374;-57
2023/07/20 03:05:27;;;;;;;6.20;4.25;;;;;;;;;;6215929;23;20012;-56
2023/07/20 03:07:53;;;;;;;;;;;12.30;99.90;;;;;;6216726;23;20047;-56
2023/07/20 03:10:19;;;;;;;6.80;3.83;;;;;;;;;;6215848;23;19912;-56
2023/07/20 03:12:45;;;;;;;6.20;4.60;;;;;;;;;;6217269;23;20016;-56
2023/07/20 03:15:11;;;;;;;5.68;4.32;;;;;;;;;;6217187;23;20027;-56
2023/07/20 03:17:37;;;;;;;7.28;4.15;;;;;;;;;;6217108;23;20024;-56
2023/07/20 03:20:05;;;;;;;6.78;4.20;;;;;;;;;;6216643;23;20012;-57
2023/07/20 03:22:31;;;;;;;7.90;4.35;;;;;;;;;;6217090;23;20071;-56
2023/07/20 03:24:57;;;;;;;7.43;4.88;;;;;;;;;;6215298;23;20386;-56
2023/07/20 03:27:23;;;;;;;6.53;4.90;;;;;;;;;;6216934;23;20456;-57
2023/07/20 03:29:49;;;;;;;7.03;4.93;;;;;;;;;;6215393;23;20426;-56
2023/07/20 03:32:15;;;;;;;6.50;4.35;;;;;;;;;;6217525;23;20017;-56
2023/07/20 03:34:41;;;;;;;5.90;4.70;;;;;;;;;;6216875;23;20445;-57
2023/07/20 03:37:07;;;;;;;6.50;4.25;;;;;;;;;;6216875;23;20020;-56
2023/07/20 03:39:33;;;;;;;9.70;4.97;;;;;;;;;;6216816;23;20019;-56
2023/07/20 03:41:59;;;;;;;4.38;3.60;;;;;;;;;;6215456;23;20401;-56
2023/07/20 03:44:25;;;;;;;8.02;3.80;;;;;;;;;;6216889;23;20088;-56
2023/07/20 03:46:51;;;;;;;6.97;4.05;;;;;;;;;;6217171;23;20008;-56
2023/07/20 03:49:17;;;;;;;6.80;4.20;;;;;;;;;;6216427;23;20511;-56
2023/07/20 03:51:44;;;;;;;6.22;4.15;;;;;;;;;;6217182;23;20013;-57
2023/07/20 03:54:10;;;;;;;6.97;3.70;;;;;;;;;;6216314;23;20302;-56
2023/07/20 03:56:36;;;;;;;6.25;4.38;;;;;;;;;;6216733;23;20016;-56
2023/07/20 03:59:02;;;;;;;6.35;3.78;;;;;;;;;;6216706;23;20021;-56
2023/07/20 04:01:28;;;;;;;6.47;4.15;;;;;;;;;;6216157;23;20009;-57
2023/07/20 04:03:55;;;;;;;6.00;3.67;;;;;;;;;;6215129;23;20024;-57
2023/07/20 04:06:21;;;;;;;9.05;4.28;;;;;;;;;;6216311;23;20307;-57
2023/07/20 04:08:47;;;;;;;7.45;4.43;;;;;;;;;;6216935;23;20016;-56
2023/07/20 04:11:13;;;;;;;6.43;4.70;;;;;;;;;;6216218;23;20013;-57
2023/07/20 04:13:39;;;;;;;4.70;3.75;;;;;;;;;;6217196;23;20028;-56
2023/07/20 04:16:05;;;;;;;4.65;3.80;;;;;;;;;;6216529;23;20012;-56
2023/07/20 04:18:31;;;;;;;5.30;3.38;;;;;;;;;;6216516;23;20043;-57
2023/07/20 04:20:58;;;;;;;4.93;3.67;;;;;;;;;;6214968;23;20048;-56
2023/07/20 04:23:24;;;;;;;5.40;3.92;;;;;;;;;;6215031;23;20383;-56
2023/07/20 04:25:50;;;;;;;7.88;4.18;;;;;;;;;;6216442;23;20434;-56
2023/07/20 04:28:16;;;;;;;5.25;3.50;;;;;;;;;;6216078;23;20457;-56
2023/07/20 04:30:42;;;;;;;4.95;3.88;;;;;;;;;;6216597;23;20019;-57
2023/07/20 04:33:09;;;;;;;7.78;4.30;;;;;;;;;;6215898;23;20031;-56
2023/07/20 04:35:51;;;;;;;6.03;4.80;;;;;;;;;;6215653;23;20012;-57
2023/07/20 04:38:17;;;;;;;6.28;5.03;;;;;;;;;;6216412;23;20017;-57
2023/07/20 04:40:46;;;;;;;6.13;4.60;;;;;;;;;;6216296;23;20034;-56
2023/07/20 04:43:13;;;;;;;9.02;6.30;;;;;;;;;;6216333;23;20017;-56
2023/07/20 04:45:39;;;;;;;11.45;7.65;;;;;;;;;;6215771;23;20059;-56
2023/07/20 04:48:11;;;;;;;11.80;8.52;;;;;;;;;;6217766;23;20289;-56
2023/07/20 04:50:37;;;;;;;18.35;9.95;;;;;;;;;;6216435;23;20019;-56
2023/07/20 04:53:03;;;;;;;12.00;9.05;;;;;;;;;;6215967;23;20024;-57
2023/07/20 04:55:29;;;;;;;15.13;7.65;;;;;;;;;;6216282;23;20025;-56
2023/07/20 04:57:56;;;;;;;8.05;5.93;;;;;;;;;;6216337;23;20063;-57
2023/07/20 05:00:22;;;;;;;7.85;5.82;;;;;;;;;;6214644;23;20012;-57
2023/07/20 05:02:48;;;;;;;9.70;5.57;;;;;;;;;;6216261;23;20024;-56
2023/07/20 05:05:15;;;;;;;10.30;6.18;;;;;;;;;;6215544;23;20015;-57
2023/07/20 05:07:41;;;;;;;7.57;6.15;;;;;;;;;;6215827;23;20325;-57
2023/07/20 05:10:07;;;;;;;9.45;5.90;;;;;;;;;;6215751;23;20052;-56
2023/07/20 05:12:34;;;;;;;9.77;6.22;;;;;;;;;;6214389;23;20020;-57
2023/07/20 05:15:00;;;;;;;12.20;6.32;;;;;;;;;;6216171;23;20008;-56
2023/07/20 05:17:26;;;;;;;8.70;5.25;;;;;;;;;;6216046;23;20430;-56
2023/07/20 05:19:52;;;;;;;8.65;4.80;;;;;;;;;;6216744;23;20020;-56
2023/07/20 05:22:18;;;;;;;6.57;4.93;;;;;;;;;;6216800;23;20095;-57
2023/07/20 05:24:44;;;;;;;7.53;4.97;;;;;;;;;;6215311;23;20017;-57
2023/07/20 05:27:10;;;;;;;6.93;4.90;;;;;;;;;;6216106;23;20504;-56
2023/07/20 05:29:36;;;;;;;6.50;4.65;;;;;;;;;;6215630;23;20012;-57
2023/07/20 05:32:03;;;;;;;5.80;3.97;;;;;;;;;;6214622;23;20422;-56
2023/07/20 05:34:29;;;;;;;6.60;4.35;;;;;;;;;;6216146;23;20024;-56
2023/07/20 05:36:55;;;;;;;8.77;3.92;;;;;;;;;;6214579;23;20091;-57
2023/07/20 05:39:22;;;;;;;6.32;4.45;;;;;;;;;;6213868;23;20018;-57
2023/07/20 05:41:48;;;;;;;7.03;3.53;;;;;;;;;;6215944;23;20096;-56
2023/07/20 05:44:14;;;;;;;4.65;3.08;;;;;;;;;;6217884;23;20035;-57
2023/07/20 05:46:40;;;;;;;5.00;3.60;;;;;;;;;;6216114;23;20016;-57
2023/07/20 05:49:06;;;;;;;6.38;4.55;;;;;;;;;;6217979;23;20027;-56
2023/07/20 05:51:32;;;;;;;7.28;5.05;;;;;;;;;;6218649;23;20009;-57
2023/07/20 05:53:58;;;;;;;7.63;5.00;;;;;;;;;;6217833;23;20013;-57
2023/07/20 05:56:24;;;;;;;8.07;3.65;;;;;;;;;;6218601;23;20075;-57
2023/07/20 05:58:51;;;;;;;5.93;3.53;;;;;;;;;;6217801;23;20008;-57
2023/07/20 06:01:18;;;;;;;7.03;2.40;;;16.50;99.90;;;;;;6216259;23;20013;-61
2023/07/20 06:03:44;;;;;;;4.50;1.80;;;;;;;;;;6217156;23;20349;-61
2023/07/20 06:06:11;;;;;;;4.68;1.60;;;;;;;;;;6216771;23;20353;-61
2023/07/20 06:08:38;;;;;;;3.25;1.52;;;;;;;;;;6215479;23;20446;-61
2023/07/20 06:11:04;;;;;;;4.32;1.73;;;;;;;;;;6217249;23;20008;-62
2023/07/20 06:13:31;;;;;;;3.40;1.98;;;;;;;;;;6217704;23;20020;-62
2023/07/20 06:15:57;;;;;;;3.40;1.95;;;;;;;;;;6191193;23;20325;-62
2023/07/20 06:18:23;;;;;;;2.17;1.35;;;;;;;;;;6217792;23;20016;-63
2023/07/20 06:20:50;;;;;;;5.10;1.60;;;;;;;;;;6190222;23;20017;-62
2023/07/20 06:23:17;;;;;;;2.47;1.45;;;;;;;;;;6192078;23;20087;-62
2023/07/20 06:25:42;;;;;;;4.32;1.42;;;18.00;99.90;;;;;;6215813;23;20009;-62
2023/07/20 06:28:09;;;;;;;3.70;1.60;;;;;;;;;;6216156;23;20091;-62
2023/07/20 06:30:35;;;;;;;3.08;1.25;;;;;;;;;;6215640;23;20012;-62
2023/07/20 06:33:01;;;;;;;2.95;1.08;;;;;;;;;;6217838;23;20309;-62
2023/07/20 06:35:27;;;;;;;2.70;1.50;;;;;;;;;;6217100;23;20495;-62
2023/07/20 06:37:53;;;;;;;5.80;1.40;;;;;;;;;;6217516;23;20013;-61
2023/07/20 06:40:19;;;;;;;1.75;1.20;;;18.60;99.90;;;;;;6191112;23;20425;-63
2023/07/20 06:42:45;;;;;;;3.80;1.30;;;;;;;;;;6217466;23;20024;-62
2023/07/20 06:45:11;;;;;;;2.90;1.10;;;;;;;;;;6215914;23;20453;-62
2023/07/20 06:47:40;;;;;;;3.42;1.00;;;;;;;;;;6215564;23;20047;-62
2023/07/20 06:50:07;;;;;;;4.20;1.20;;;18.10;99.90;;;;;;6213729;23;20430;-63
2023/07/20 06:52:33;;;;;;;3.55;1.00;;;;;;;;;;6215679;23;20062;-63
2023/07/20 06:54:59;;;;;;;3.20;1.20;;;;;;;;;;6215055;23;20019;-63
2023/07/20 06:57:25;;;;;;;3.00;0.98;;;;;;;;;;6217660;23;20423;-62
2023/07/20 06:59:53;;;;;;;4.75;1.00;;;;;;;;;;6216041;23;20023;-62
2023/07/20 07:02:19;;;;;;;3.75;1.00;;;;;;;;;;6217559;23;20445;-62
2023/07/20 07:04:46;;;;;;;4.40;0.98;;;;;;;;;;6190063;23;20023;-62
2023/07/20 07:07:15;;;;;;;3.75;0.80;;;;;;;;;;6215742;23;20448;-62
2023/07/20 07:09:42;;;;;;;3.30;0.85;;;;;;;;;;6216052;23;20378;-63
2023/07/20 07:12:08;;;;;;;3.40;1.30;;;;;;;;;;6217545;23;20100;-63
2023/07/20 07:14:35;;;;;;;4.95;0.88;;;;;;;;;;6216423;23;20016;-64
2023/07/20 07:17:01;;;;;;;1.92;0.98;;;;;;;;;;6215687;23;20066;-63
2023/07/20 07:19:27;;;;;;;3.75;1.00;;;;;;;;;;6215041;23;20016;-63
2023/07/20 07:21:53;;;;;;;2.10;0.80;;;;;;;;;;6189429;23;20017;-63
2023/07/20 07:24:19;;;;;;;2.72;0.95;;;;;;;;;;6190223;23;20108;-62
2023/07/20 07:26:45;;;;;;;2.00;0.82;;;;;;;;;;6214655;23;20019;-63
2023/07/20 07:29:11;;;;;;;3.65;1.00;;;;;;;;;;6217379;23;20059;-61
2023/07/20 07:31:38;;;;;;;3.65;1.10;;;;;;;;;;6214654;23;20024;-63
2023/07/20 07:34:04;;;;;;;4.22;1.30;;;;;;;;;;6215562;23;20154;-64
2023/07/20 07:36:34;;;;;;;3.75;1.10;;;;;;;;;;6215491;23;20021;-63
2023/07/20 07:39:00;;;;;;;2.13;0.90;;;;;;;;;;6216503;23;20027;-63
2023/07/20 07:41:26;;;;;;;3.35;0.90;;;18.10;99.90;;;;;;6216362;23;20051;-62
2023/07/20 07:43:52;;;;;;;4.85;0.90;;;;;;;;;;6215458;23;20008;-63
2023/07/20 07:46:18;;;;;;;5.00;1.10;;;18.90;99.90;;;;;;6216614;23;20020;-63
2023/07/20 07:48:44;;;;;;;2.65;1.00;;;;;;;;;;6190837;23;20100;-63
2023/07/20 07:51:10;;;;;;;2.55;1.35;;;19.50;99.90;;;;;;6214933;23;20012;-63
2023/07/20 07:53:36;;;;;;;2.90;0.90;;;;;;;;;;6216077;23;20011;-63
2023/07/20 07:56:03;;;;;;;3.45;1.00;;;19.40;99.90;;;;;;6215414;23;20079;-63
2023/07/20 07:58:29;;;;;;;4.85;0.95;;;19.30;99.90;;;;;;6215653;23;20368;-62
2023/07/20 08:00:55;;;;;;;2.28;0.80;;;;;;;;;;6217061;23;20015;-62
2023/07/20 08:03:21;;;;;;;4.45;1.13;;;19.00;99.90;;;;;;6217442;23;20334;-62
2023/07/20 08:05:47;;;;;;;1.58;0.70;;;;;;;;;;6215309;23;20024;-62
2023/07/20 08:08:13;;;;;;;2.35;0.85;;;18.70;99.90;;;;;;6214625;23;20380;-63
2023/07/20 08:10:39;;;;;;;3.25;0.85;;;19.00;99.90;;;;;;6190026;23;20096;-62
2023/07/20 08:13:05;;;;;;;2.08;0.90;;;;;;;;;;6215903;23;20020;-63
2023/07/20 08:15:31;;;;;;;2.53;1.45;;;;;;;;;;6216110;23;20017;-62
2023/07/20 08:17:59;;;;;;;6.07;1.17;;;20.10;99.90;;;;;;6215735;23;20066;-61
2023/07/20 08:20:26;;;;;;;4.07;0.90;;;20.10;99.90;;;;;;6216029;23;20017;-62
2023/07/20 08:22:55;;;;;;;2.85;0.90;;;;;;;;;;6216677;23;20012;-62
2023/07/20 08:25:22;;;;;;;2.92;0.85;;;;;;;;;;6217607;23;20017;-59
2023/07/20 08:27:48;;;;;;;6.43;0.90;;;;;;;;;;6215817;23;20023;-58
2023/07/20 08:30:14;;;;;;;2.67;0.73;;;19.60;99.90;;;;;;6216631;23;20012;-58
2023/07/20 08:32:40;;;;;;;1.83;0.80;;;20.30;99.90;;;;;;6215109;23;20009;-58
2023/07/20 08:35:06;;;;;;;3.47;0.75;;;20.70;99.90;;;;;;6216132;23;20004;-59
2023/07/20 08:37:32;;;;;;;2.65;1.00;;;;;;;;;;6216878;23;20048;-59
2023/07/20 08:39:58;;;;;;;2.05;0.70;;;;;;;;;;6215730;23;20016;-59
2023/07/20 08:42:24;;;;;;;1.80;0.55;;;;;;;;;;6217457;23;20035;-59
2023/07/20 08:44:53;;;;;;;2.17;0.60;;;20.60;99.90;;;;;;6214804;23;20360;-59
2023/07/20 08:47:20;;;;;;;1.65;0.95;;;20.80;99.90;;;;;;6216231;23;20005;-59
2023/07/20 08:49:49;;;;;;;2.13;0.50;;;;;;;;;;6215996;23;20052;-59
2023/07/20 08:52:15;;;;;;;1.33;0.60;;;20.80;99.90;;;;;;6216379;23;20091;-59
2023/07/20 08:54:40;;;;;;;3.80;0.70;;;20.60;99.90;;;;;;6216829;23;20448;-59
2023/07/20 08:57:07;;;;;;;1.17;0.50;;;20.50;99.90;;;;;;6216383;23;20301;-58
2023/07/20 08:59:36;;;;;;;2.47;0.50;;;20.30;99.90;;;;;;6189953;23;20486;-57
2023/07/20 09:02:03;;;;;;;2.60;0.65;;;;;;;;;;6215980;23;20015;-64
2023/07/20 09:04:28;;;;;;;1.13;0.60;;;20.20;99.90;;;;;;6215477;23;20294;-64
2023/07/20 09:06:55;;;;;;;2.85;0.70;;;20.40;99.90;;;;;;6215159;23;20018;-64
2023/07/20 09:09:21;;;;;;;2.88;0.65;;;;;;;;;;6216277;23;20058;-64
2023/07/20 09:11:50;;;;;;;1.98;0.75;;;;;;;;;;6215134;23;20023;-65
2023/07/20 09:14:17;;;;;;;1.33;0.53;;;20.30;99.90;;;;;;6216274;23;20008;-64
2023/07/20 09:16:55;;;;;;;3.17;1.00;;;20.50;99.90;;;;;;6165492;23;20020;-64
2023/07/20 09:19:22;;;;;;;2.78;0.60;;;;;;;;;;6218352;23;20012;-65
2023/07/20 09:21:52;;;;;;;4.72;1.45;;;20.80;99.90;;;;;;6217394;23;20023;-64
2023/07/20 09:24:19;;;;;;;1.38;0.55;;;21.30;99.90;;;;;;6192086;23;20063;-64
2023/07/20 09:26:48;;;;;;;2.22;0.80;;;21.00;99.90;;;;;;6191815;23;20074;-64
2023/07/20 09:29:18;;;;;;;2.70;0.63;;;21.20;99.90;;;;;;6216376;23;20058;-64
2023/07/20 09:32:06;;;;;;;2.72;1.10;;;21.50;99.90;;;;;;6218217;23;20143;-64
2023/07/20 09:34:32;;;;;;;3.63;0.70;;;21.80;99.90;;;;;;6217396;23;20100;-65
2023/07/20 09:37:00;;;;;;;2.05;0.60;;;21.90;99.90;;;;;;6218161;23;20433;-64
2023/07/20 09:39:29;;;;;;;2.92;0.68;;;22.00;99.90;;;;;;6216795;23;20016;-64
2023/07/20 09:41:59;;;;;;;1.38;0.68;;;22.00;99.90;;;;;;6218045;23;20056;-64
2023/07/20 09:44:28;;;;;;;4.13;0.60;;;22.30;99.90;;;;;;6218179;23;20048;-64
2023/07/20 09:46:55;;;;;;;5.75;0.80;;;21.80;99.90;;;;;;6191614;23;20017;-64
2023/07/20 09:49:21;;;;;;;0.88;0.40;;;22.00;99.90;;;;;;6219138;23;20012;-65
2023/07/20 09:51:48;;;;;;;1.17;0.65;;;22.10;99.90;;;;;;6218027;23;20009;-64
2023/07/20 09:54:14;;;;;;;1.70;0.68;;;22.00;99.90;;;;;;6218080;23;20353;-64
2023/07/20 09:56:41;;;;;;;1.40;0.50;;;22.50;99.90;;;;;;6218010;23;20321;-64
2023/07/20 09:59:07;;;;;;;1.17;0.50;;;22.30;99.90;;;;;;6219035;23;20074;-64
2023/07/20 10:01:37;;;;;;;2.00;0.70;;;22.30;99.90;;;;;;6217740;23;20414;-63
2023/07/20 10:04:04;;;;;;;2.83;0.68;;;21.80;99.90;;;;;;6192317;23;20398;-66
2023/07/20 10:06:32;;;;;;;1.73;0.60;;;21.90;99.90;;;;;;6216404;23;20012;-66
2023/07/20 10:09:02;;;;;;;2.40;0.70;;;21.60;99.90;;;;;;6217875;23;20083;-65
2023/07/20 10:11:34;;;;;;;3.55;0.98;;;21.80;99.90;;;;;;6217416;23;20094;-65
2023/07/20 10:14:02;;;;;;;1.85;0.80;;;21.90;99.90;;;;;;6214924;23;20083;-66
2023/07/20 10:16:32;;;;;;;2.53;0.70;;;22.50;99.90;;;;;;6215322;23;20021;-66
2023/07/20 10:19:11;;;;;;;1.05;0.50;;;22.20;99.90;;;;;;6216423;23;20020;-64
2023/07/20 10:21:42;;;;;;;1.88;0.60;;;21.90;99.90;;;;;;6215924;23;20012;-65
2023/07/20 10:24:11;;;;;;;0.77;0.47;;;22.10;99.90;;;;;;6214439;23;20086;-65
2023/07/20 10:26:37;;;;;;;3.63;0.70;;;;;;;;;;6217447;23;20009;-68
2023/07/20 10:29:04;;;;;;;3.63;0.88;;;22.10;99.90;;;;;;6216751;23;20445;-67
2023/07/20 10:31:30;;;;;;;1.45;0.68;;;22.30;99.90;;;;;;6216470;23;20091;-67
2023/07/20 10:33:57;;;;;;;4.22;0.90;;;22.30;99.90;;;;;;6216257;23;20062;-64
2023/07/20 10:36:27;;;;;;;1.27;0.73;;;22.50;99.90;;;;;;6212567;23;20307;-70
2023/07/20 10:38:55;;;;;;;0.88;0.55;;;22.40;99.90;;;;;;6187007;23;20071;-72
2023/07/20 10:41:21;;;;;;;1.60;0.60;;;22.30;99.90;;;;;;6186628;23;20023;-72
2023/07/20 10:43:49;;;;;;;2.25;0.60;;;22.50;99.90;;;;;;6212923;23;20524;-71
2023/07/20 10:46:43;;;;;;;2.63;0.57;;;22.50;99.90;;;;;;6190699;23;20027;-68
2023/07/20 10:49:14;;;;;;;2.33;0.77;;;22.80;99.90;;;;;;6190892;23;20092;-68
2023/07/20 10:51:49;;;;;;;2.25;0.60;;;22.40;99.90;;;;;;6216140;23;20005;-65
2023/07/20 10:54:17;;;;;;;1.67;0.52;;;22.00;99.90;;;;;;6216646;23;20019;-66
2023/07/20 10:56:48;;;;;;;1.77;0.73;;;22.20;99.90;;;;;;6216424;23;20019;-57
2023/07/20 10:59:40;;;;;;;2.42;0.70;;;22.00;99.90;;;;;;6215663;23;20012;-63
2023/07/20 11:02:13;;;;;;;1.83;0.80;;;21.70;99.90;;;;;;6215853;23;20019;-61
2023/07/20 11:04:41;;;;;;;2.15;0.77;;;21.50;99.90;;;;;;6190858;23;20012;-60
2023/07/20 11:07:09;;;;;;;1.67;1.30;;;21.60;99.90;;;;;;6216735;23;20461;-58
2023/07/20 11:09:38;;;;;;;2.63;0.70;;;21.50;99.90;;;;;;6215962;23;20454;-61
2023/07/20 11:12:13;;;;;;;4.43;0.73;;;21.50;99.90;;;;;;6217343;23;20024;-62
2023/07/20 11:14:59;;;;;;;2.67;0.88;;;21.70;99.90;;;;;;6214779;23;20484;-60
2023/07/20 11:17:32;;;;;;;3.28;0.65;;;21.80;99.90;;;;;;6190892;23;20095;-65
2023/07/20 11:20:01;;;;;;;2.42;0.70;;;21.90;99.90;;;;;;6190724;23;20023;-64
2023/07/20 11:22:27;;;;;;;1.17;0.60;;;21.80;99.90;;;;;;6216128;23;20019;-61
2023/07/20 11:24:58;;;;;;;3.15;0.50;;;21.50;99.90;;;;;;6214006;23;20044;-64
2023/07/20 11:27:25;;;;;;;4.13;0.80;;;21.70;99.90;;;;;;6215386;23;20008;-63
2023/07/20 11:29:52;;;;;;;1.92;0.70;;;21.80;99.90;;;;;;6189918;23;20430;-63
2023/07/20 11:32:23;;;;;;;2.72;0.90;;;21.90;99.90;;;;;;6213818;23;20814;-63
2023/07/20 11:34:50;;;;;;;3.47;0.80;;;22.20;99.90;;;;;;6214603;23;20016;-63
2023/07/20 11:37:25;;;;;;;4.13;1.55;;;22.60;99.90;;;;;;6217850;23;20452;-64
2023/07/20 11:39:57;;;;;;;1.85;0.80;;;22.60;99.90;;;;;;6218284;23;20016;-62
2023/07/20 11:42:24;;;;;;;1.67;0.68;;;23.10;99.90;;;;;;6215125;23;20017;-63
2023/07/20 11:44:52;;;;;;;5.38;0.80;;;22.60;99.90;;;;;;6214762;23;20013;-63
2023/07/20 11:47:19;;;;;;;1.88;0.80;;;23.10;99.90;;;;;;6216084;23;20031;-65
2023/07/20 11:49:49;;;;;;;2.47;0.80;;;23.10;99.90;;;;;;6217009;23;20504;-61
2023/07/20 11:52:16;;;;;;;1.75;0.70;;;23.30;99.90;;;;;;6217338;23;20438;-62
2023/07/20 11:54:43;;;;;;;2.25;0.50;;;23.40;99.90;;;;;;6165649;23;20099;-61
2023/07/20 11:57:27;;;;;;;1.80;0.60;;;23.20;99.90;;;;;;6215465;23;20025;-59
2023/07/20 11:59:57;;;;;;;1.38;0.50;;;22.80;99.90;;;;;;6217006;23;20013;-62
2023/07/20 12:02:26;;;;;;;1.40;0.63;;;22.80;99.90;;;;;;6216403;23;20424;-60
2023/07/20 12:04:52;;;;;;;1.27;0.60;;;;;;;;;;6215034;23;20473;-62
2023/07/20 12:07:19;;;;;;;1.58;0.60;;;22.80;99.90;;;;;;6216525;23;20021;-59
2023/07/20 12:10:02;;;;;;;1.13;0.70;;;22.60;99.90;;;;;;6215237;23;20508;-61
2023/07/20 12:12:28;;;;;;;1.42;0.55;;;22.30;99.90;;;;;;6190684;23;20021;-63
2023/07/20 12:14:54;;;;;;;2.83;0.70;;;22.00;99.90;;;;;;6215830;23;20020;-63
2023/07/20 12:17:20;;;;;;;1.60;0.60;;;;;;;;;;6216770;23;20013;-63
2023/07/20 12:19:46;;;;;;;1.10;0.50;;;21.80;99.90;;;;;;6216647;23;20095;-63
2023/07/20 12:22:12;;;;;;;30.73;1.45;;;;;;;;;;6216763;23;20098;-66
2023/07/20 12:24:38;;;;;;;2.78;0.70;;;;;;;;;;6214815;23;20028;-63
2023/07/20 12:27:04;;;;;;;2.10;0.73;;;21.00;99.90;;;;;;6216588;23;20317;-63
2023/07/20 12:29:35;;;;;;;2.25;0.60;;;;;;;;;;6216550;23;20016;-60
2023/07/20 12:32:01;;;;;;;2.03;0.60;;;;;;;;;;6215956;23;20016;-64
2023/07/20 12:34:30;;;;;;;1.20;0.50;;;21.40;99.90;;;;;;6215321;23;20419;-62
2023/07/20 12:36:57;;;;;;;1.95;0.70;;;;;;;;;;6215075;23;20016;-62
2023/07/20 12:39:23;;;;;;;1.02;0.55;;;;;;;;;;6215987;23;20013;-62
2023/07/20 12:41:48;;;;;;;1.38;0.50;;;22.60;99.90;;;;;;6215173;23;20059;-60
2023/07/20 12:44:14;;;;;;;1.45;0.50;;;;;;;;;;6215232;23;20017;-67
2023/07/20 12:46:40;;;;;;;1.35;0.43;;;22.90;99.90;;;;;;6214551;23;20417;-63
2023/07/20 12:49:06;;;;;;;2.72;0.70;;;;;;;;;;6216799;23;20020;-73
2023/07/20 12:51:34;;;;;;;1.13;0.47;;;23.30;99.90;;;;;;6190276;23;20012;-64
2023/07/20 12:54:00;;;;;;;2.58;0.50;;;;;;;;;;6217028;23;20046;-66
2023/07/20 12:56:26;;;;;;;1.30;0.40;;;23.20;99.90;;;;;;6216979;23;20287;-62
2023/07/20 12:58:52;;;;;;;1.92;0.63;;;;;;;;;;6217070;23;20019;-61
2023/07/20 13:01:18;;;;;;;0.85;0.45;;;23.40;99.90;;;;;;6189334;23;20016;-59
2023/07/20 13:03:44;;;;;;;0.60;0.40;;;23.70;99.90;;;;;;6214984;23;20440;-61
2023/07/20 13:06:09;;;;;;;1.98;0.57;;;24.00;99.90;;;;;;6215825;23;20463;-62
2023/07/20 13:08:36;;;;;;;1.90;0.68;;;;;;;;;;6214900;23;20360;-62
2023/07/20 13:11:02;;;;;;;1.17;0.57;;;;;;;;;;6216986;23;20008;-62
2023/07/20 13:13:28;;;;;;;1.20;0.60;;;;;;;;;;6214898;23;20015;-61
2023/07/20 13:15:55;;;;;;;0.28;0.25;;;23.20;99.90;;;;;;6214804;23;20017;-61
2023/07/20 13:18:21;;;;;;;2.63;0.88;;;;;;;;;;6215191;23;20028;-61
2023/07/20 13:20:47;;;;;;;3.80;0.60;;;;;;;;;;6215385;23;20013;-62
2023/07/20 13:23:13;;;;;;;3.63;0.80;;;;;;;;;;6190725;23;20028;-61
2023/07/20 13:25:39;;;;;;;0.47;0.40;;;;;;;;;;6215114;23;20019;-61
2023/07/20 13:28:05;;;;;;;1.30;0.50;;;23.10;99.90;;;;;;6215757;23;20047;-61
2023/07/20 13:30:31;;;;;;;1.13;0.60;;;23.30;99.90;;;;;;6216280;23;20013;-62
2023/07/20 13:32:57;;;;;;;0.85;0.40;;;23.20;99.90;;;;;;6214814;23;20012;-62
2023/07/20 13:35:23;;;;;;;2.00;0.55;;;;;;;;;;6215032;23;20051;-61
2023/07/20 13:37:49;;;;;;;1.00;0.50;;;;;;;;;;6190597;23;20009;-61
2023/07/20 13:40:18;;;;;;;1.80;0.50;;;23.60;99.90;;;;;;6214628;23;20012;-61
2023/07/20 13:42:45;;;;;;;3.92;0.60;;;23.50;99.90;;;;;;6214727;23;20016;-67
2023/07/20 13:45:11;;;;;;;1.58;0.68;;;;;;;;;;6214287;23;20333;-67
2023/07/20 13:47:37;;;;;;;3.75;0.60;;;;;;;;;;6214470;23;20024;-72
2023/07/20 13:50:02;;;;;;;1.98;0.80;;;23.10;99.90;;;;;;6214054;23;20382;-67
2023/07/20 13:52:29;;;;;;;1.67;0.40;;;;;;;;;;6214668;23;20047;-62
2023/07/20 13:54:55;;;;;;;2.05;0.70;;;;;;;;;;6216060;23;20091;-64
2023/07/20 13:57:21;;;;;;;2.25;0.85;;;;;;;;;;6216056;23;20017;-64
2023/07/20 13:59:46;;;;;;;2.72;0.60;;;23.30;99.90;;;;;;6215990;23;20012;-65
2023/07/20 14:02:15;;;;;;;1.27;0.70;;;23.20;99.90;;;;;;6214537;23;20017;-65